createdAt,value
2022-09-28T00:01:06.765Z,9.05
2022-09-28T00:03:34.718Z,9.05
2022-09-28T00:06:03.633Z,9.03
2022-09-28T00:08:31.555Z,9.00
2022-09-28T00:10:59.737Z,9.06
2022-09-28T00:13:28.307Z,9.02
2022-09-28T00:16:06.299Z,8.97
2022-09-28T00:18:36.094Z,9.00
2022-09-28T00:21:05.785Z,8.99
2022-09-28T00:23:34.749Z,9.03
2022-09-28T00:26:06.482Z,9.00
2022-09-28T00:28:34.439Z,9.06
2022-09-28T00:31:09.601Z,9.14
2022-09-28T00:33:37.808Z,9.17
2022-09-28T00:36:05.700Z,9.17
2022-09-28T00:38:33.548Z,9.18
2022-09-28T00:41:01.582Z,9.26
2022-09-28T00:43:29.493Z,9.26
2022-09-28T00:46:00.769Z,9.25
2022-09-28T00:48:34.194Z,9.26
2022-09-28T00:51:05.893Z,9.29
2022-09-28T00:53:35.936Z,9.27
2022-09-28T00:56:07.541Z,9.26
2022-09-28T00:58:39.508Z,9.26
2022-09-28T01:01:07.551Z,9.25
2022-09-28T01:03:37.125Z,9.31
2022-09-28T01:06:06.600Z,9.37
2022-09-28T01:08:35.158Z,9.42
2022-09-28T01:11:03.794Z,9.42
2022-09-28T01:13:32.503Z,9.41
2022-09-28T01:16:08.195Z,9.40
2022-09-28T01:18:43.719Z,9.42
2022-09-28T01:21:13.937Z,9.45
2022-09-28T01:24:01.608Z,9.50
2022-09-28T01:26:59.494Z,9.46
2022-09-28T01:29:35.482Z,9.54
2022-09-28T01:32:12.143Z,9.55
2022-09-28T01:34:44.009Z,9.47
2022-09-28T01:37:12.892Z,9.45
2022-09-28T01:39:43.616Z,9.52
2022-09-28T01:42:16.261Z,9.50
2022-09-28T01:44:47.581Z,9.52
2022-09-28T01:47:16.788Z,9.57
2022-09-28T01:49:47.387Z,9.54
2022-09-28T01:52:19.486Z,9.51
2022-09-28T01:54:51.846Z,9.58
2022-09-28T01:57:24.573Z,9.64
2022-09-28T01:59:57.199Z,9.61
2022-09-28T02:02:29.595Z,9.73
2022-09-28T02:05:00.187Z,9.75
2022-09-28T02:07:32.873Z,9.76
2022-09-28T02:10:04.138Z,9.79
2022-09-28T02:12:36.010Z,9.74
2022-09-28T02:15:12.756Z,9.80
2022-09-28T02:17:41.601Z,9.82
2022-09-28T02:20:10.331Z,9.81
2022-09-28T02:22:43.048Z,9.89
2022-09-28T02:25:13.037Z,9.85
2022-09-28T02:27:46.474Z,9.83
2022-09-28T02:30:14.723Z,9.84
2022-09-28T02:32:46.795Z,9.88
2022-09-28T02:35:16.841Z,9.95
2022-09-28T02:37:44.950Z,9.94
2022-09-28T02:40:17.009Z,10.00
2022-09-28T02:42:54.212Z,10.01
2022-09-28T02:45:32.234Z,10.02
2022-09-28T02:48:09.316Z,10.04
2022-09-28T02:50:43.198Z,9.98
2022-09-28T02:53:28.968Z,10.11
2022-09-28T02:56:09.178Z,10.15
2022-09-28T02:58:47.841Z,10.16
2022-09-28T03:01:22.045Z,10.14
2022-09-28T03:03:52.305Z,10.12
2022-09-28T03:06:24.307Z,10.09
2022-09-28T03:08:58.524Z,10.06
2022-09-28T03:11:30.070Z,10.07
2022-09-28T03:13:59.452Z,10.08
2022-09-28T03:16:28.471Z,10.12
2022-09-28T03:18:56.549Z,10.12
2022-09-28T03:21:24.371Z,10.14
2022-09-28T03:23:52.244Z,10.19
2022-09-28T03:26:20.255Z,10.12
2022-09-28T03:28:48.167Z,10.14
2022-09-28T03:31:17.368Z,10.07
2022-09-28T03:33:45.679Z,10.10
2022-09-28T03:36:15.059Z,10.13
2022-09-28T03:38:42.891Z,10.18
2022-09-28T03:41:10.873Z,10.19
2022-09-28T03:43:38.765Z,10.19
2022-09-28T03:46:07.003Z,10.19
2022-09-28T03:48:37.410Z,10.15
2022-09-28T03:51:09.290Z,10.20
2022-09-28T03:53:37.471Z,10.28
2022-09-28T03:56:06.853Z,10.31
2022-09-28T03:58:35.084Z,10.27
2022-09-28T04:01:04.505Z,10.27
2022-09-28T04:03:32.700Z,10.15
2022-09-28T04:06:02.310Z,10.06
2022-09-28T04:08:30.133Z,10.06
2022-09-28T04:10:58.636Z,10.01
2022-09-28T04:13:26.448Z,9.91
2022-09-28T04:15:54.917Z,9.86
2022-09-28T04:18:23.041Z,9.77
2022-09-28T04:21:03.575Z,9.78
2022-09-28T04:23:31.881Z,9.69
2022-09-28T04:26:00.660Z,9.64
2022-09-28T04:28:46.097Z,9.64
2022-09-28T04:31:16.298Z,9.64
2022-09-28T04:33:44.702Z,9.60
2022-09-28T04:36:14.245Z,9.62
2022-09-28T04:38:52.844Z,9.55
2022-09-28T04:41:22.529Z,9.57
2022-09-28T04:43:50.980Z,9.62
2022-09-28T04:46:19.044Z,9.55
2022-09-28T04:48:46.962Z,9.54
2022-09-28T04:51:16.252Z,9.60
2022-09-28T04:53:44.292Z,9.56
2022-09-28T04:56:13.979Z,9.55
2022-09-28T04:58:42.402Z,9.58
2022-09-28T05:01:13.361Z,9.62
2022-09-28T05:03:41.432Z,9.55
2022-09-28T05:06:09.809Z,9.53
2022-09-28T05:08:39.243Z,9.52
2022-09-28T05:11:08.294Z,9.52
2022-09-28T05:13:41.927Z,9.53
2022-09-28T05:16:12.915Z,9.54
2022-09-28T05:18:41.175Z,9.55
2022-09-28T05:21:12.752Z,9.57
2022-09-28T05:23:42.524Z,9.62
2022-09-28T05:26:10.544Z,9.61
2022-09-28T05:28:38.342Z,9.57
2022-09-28T05:31:06.839Z,9.56
2022-09-28T05:33:35.150Z,9.60
2022-09-28T05:36:03.613Z,9.62
2022-09-28T05:38:31.709Z,9.62
2022-09-28T05:41:05.688Z,9.62
2022-09-28T05:43:34.503Z,9.60
2022-09-28T05:46:02.427Z,9.63
2022-09-28T05:48:30.510Z,9.69
2022-09-28T05:50:59.694Z,9.62
2022-09-28T05:53:27.813Z,9.60
2022-09-28T05:56:00.498Z,9.55
2022-09-28T05:58:29.222Z,9.52
2022-09-28T06:00:57.469Z,9.54
2022-09-28T06:03:26.149Z,9.54
2022-09-28T06:05:54.014Z,9.53
2022-09-28T06:08:22.089Z,9.54
2022-09-28T06:10:50.008Z,9.56
2022-09-28T06:13:19.328Z,9.53
2022-09-28T06:15:47.421Z,9.55
2022-09-28T06:18:15.579Z,9.58
2022-09-28T06:20:43.512Z,9.53
2022-09-28T06:23:11.787Z,9.58
2022-09-28T06:25:40.128Z,9.58
2022-09-28T06:28:10.355Z,9.56
2022-09-28T06:30:39.903Z,9.53
2022-09-28T06:33:09.618Z,9.52
2022-09-28T06:35:37.829Z,9.57
2022-09-28T06:38:05.881Z,9.66
2022-09-28T06:40:34.966Z,9.59
2022-09-28T06:43:04.804Z,9.63
2022-09-28T06:45:32.841Z,9.69
2022-09-28T06:48:02.983Z,9.61
2022-09-28T06:50:32.447Z,9.61
2022-09-28T06:53:00.774Z,9.64
2022-09-28T06:55:29.399Z,9.67
2022-09-28T06:58:00.540Z,9.65
2022-09-28T07:00:28.676Z,9.69
2022-09-28T07:02:56.605Z,9.71
2022-09-28T07:05:26.943Z,9.74
2022-09-28T07:07:56.317Z,9.66
2022-09-28T07:10:24.676Z,9.69
2022-09-28T07:12:53.056Z,9.73
2022-09-28T07:15:22.858Z,9.68
2022-09-28T07:18:00.350Z,9.77
2022-09-28T07:20:31.428Z,9.79
2022-09-28T07:23:13.277Z,9.79
2022-09-28T07:25:48.049Z,9.77
2022-09-28T07:28:16.322Z,9.85
2022-09-28T07:30:44.974Z,9.79
2022-09-28T07:33:14.610Z,9.81
2022-09-28T07:35:51.766Z,9.94
2022-09-28T07:38:20.049Z,9.92
2022-09-28T07:41:05.557Z,9.95
2022-09-28T07:43:33.812Z,9.98
2022-09-28T07:46:01.743Z,9.96
2022-09-28T07:48:37.900Z,10.07
2022-09-28T07:51:08.364Z,10.03
2022-09-28T07:53:38.243Z,10.02
2022-09-28T07:56:08.851Z,10.08
2022-09-28T07:58:38.052Z,10.10
2022-09-28T08:01:07.959Z,10.14
2022-09-28T08:03:36.533Z,10.16
2022-09-28T08:06:07.027Z,10.15
2022-09-28T08:08:36.468Z,10.20
2022-09-28T08:11:04.356Z,10.24
2022-09-28T08:13:32.328Z,10.28
2022-09-28T08:16:02.837Z,10.33
2022-09-28T08:18:30.981Z,10.40
2022-09-28T08:21:16.146Z,10.41
2022-09-28T08:23:45.308Z,10.50
2022-09-28T08:26:15.563Z,10.53
2022-09-28T08:28:45.165Z,10.54
2022-09-28T08:31:13.412Z,10.48
2022-09-28T08:33:42.175Z,10.56
2022-09-28T08:36:11.022Z,10.53
2022-09-28T08:38:38.839Z,10.50
2022-09-28T08:41:24.769Z,10.52
2022-09-28T08:44:12.040Z,10.43
2022-09-28T08:46:42.994Z,10.53
2022-09-28T08:49:24.883Z,10.57
2022-09-28T08:51:57.241Z,10.64
2022-09-28T08:54:31.269Z,10.62
2022-09-28T08:57:04.839Z,10.66
2022-09-28T08:59:39.467Z,10.73
2022-09-28T09:02:16.233Z,10.83
2022-09-28T09:04:45.163Z,10.85
2022-09-28T09:07:23.467Z,10.90
2022-09-28T09:10:00.426Z,10.95
2022-09-28T09:12:39.105Z,11.00
2022-09-28T09:15:35.280Z,10.99
2022-09-28T09:18:19.274Z,10.93
2022-09-28T09:20:52.695Z,10.97
2022-09-28T09:23:26.440Z,10.95
2022-09-28T09:25:58.392Z,10.88
2022-09-28T09:28:50.839Z,10.97
2022-09-28T09:31:31.446Z,10.96
2022-09-28T09:34:22.022Z,11.02
2022-09-28T09:37:17.969Z,11.03
2022-09-28T09:40:00.566Z,11.12
2022-09-28T09:42:41.593Z,11.08
2022-09-28T09:45:22.917Z,11.10
2022-09-28T09:47:53.589Z,11.10
2022-09-28T09:50:29.741Z,11.07
2022-09-28T09:53:00.047Z,11.09
2022-09-28T09:55:33.011Z,11.13
2022-09-28T09:58:06.150Z,11.22
2022-09-28T10:00:36.016Z,11.29
2022-09-28T10:03:03.974Z,11.36
2022-09-28T10:05:34.534Z,11.51
2022-09-28T10:08:05.148Z,11.70
2022-09-28T10:10:35.976Z,11.77
2022-09-28T10:13:04.783Z,11.81
2022-09-28T10:15:33.674Z,11.86
2022-09-28T10:18:06.757Z,11.86
2022-09-28T10:20:36.319Z,11.86
2022-09-28T10:23:05.436Z,11.82
2022-09-28T10:25:35.167Z,11.86
2022-09-28T10:28:06.377Z,11.91
2022-09-28T10:30:44.629Z,11.87
2022-09-28T10:33:32.233Z,11.93
2022-09-28T10:36:00.989Z,11.90
2022-09-28T10:38:30.121Z,11.90
2022-09-28T10:41:01.124Z,11.87
2022-09-28T10:43:31.555Z,11.89
2022-09-28T10:46:03.509Z,11.96
2022-09-28T10:48:40.062Z,12.02
2022-09-28T10:51:09.374Z,12.08
2022-09-28T10:53:38.381Z,12.26
2022-09-28T10:56:08.865Z,12.37
2022-09-28T10:58:39.601Z,12.30
2022-09-28T11:01:10.937Z,12.33
2022-09-28T11:03:51.719Z,12.33
2022-09-28T11:06:25.521Z,12.29
2022-09-28T11:08:54.168Z,12.22
2022-09-28T11:11:22.315Z,12.17
2022-09-28T11:13:51.998Z,12.21
2022-09-28T11:16:22.425Z,12.30
2022-09-28T11:18:51.743Z,12.36
2022-09-28T11:21:23.789Z,12.35
2022-09-28T11:24:06.010Z,12.46
2022-09-28T11:26:42.179Z,12.49
2022-09-28T11:29:21.884Z,12.41
2022-09-28T11:31:51.359Z,12.40
2022-09-28T11:34:41.519Z,12.41
2022-09-28T11:37:31.941Z,12.57
2022-09-28T11:40:08.394Z,12.81
2022-09-28T11:42:45.671Z,12.90
2022-09-28T11:45:31.946Z,13.01
2022-09-28T11:48:02.173Z,13.09
2022-09-28T11:50:39.773Z,13.22
2022-09-28T11:53:17.421Z,13.37
2022-09-28T11:55:48.716Z,13.46
2022-09-28T11:58:22.668Z,13.49
2022-09-28T12:00:54.388Z,13.45
2022-09-28T12:03:26.652Z,13.43
2022-09-28T12:05:58.545Z,13.57
2022-09-28T12:08:29.473Z,13.67
2022-09-28T12:11:01.013Z,13.66
2022-09-28T12:13:31.076Z,13.61
2022-09-28T12:16:27.710Z,13.50
2022-09-28T12:18:52.949Z,13.57
2022-09-28T12:21:32.755Z,13.53
2022-09-28T12:24:05.230Z,13.49
2022-09-28T12:26:38.002Z,13.44
2022-09-28T12:29:08.377Z,13.38
2022-09-28T12:31:40.430Z,13.37
2022-09-28T12:34:10.195Z,13.40
2022-09-28T12:36:51.945Z,13.41
2022-09-28T12:39:46.748Z,13.51
2022-09-28T12:42:34.382Z,13.60
2022-09-28T12:45:17.552Z,13.61
2022-09-28T12:48:04.576Z,13.65
2022-09-28T12:50:41.080Z,13.66
2022-09-28T12:53:27.435Z,13.63
2022-09-28T12:55:59.388Z,13.64
2022-09-28T12:58:42.106Z,13.72
2022-09-28T13:01:23.149Z,13.71
2022-09-28T13:04:11.412Z,13.65
2022-09-28T13:06:58.394Z,13.62
2022-09-28T13:09:29.027Z,13.75
2022-09-28T13:12:06.205Z,13.80
2022-09-28T13:15:10.157Z,13.75
2022-09-28T13:17:44.285Z,13.70
2022-09-28T13:20:23.553Z,13.67
2022-09-28T13:22:55.619Z,13.71
2022-09-28T13:25:27.252Z,13.65
2022-09-28T13:27:57.886Z,13.71
2022-09-28T13:30:26.844Z,13.77
2022-09-28T13:32:57.898Z,13.89
2022-09-28T13:35:26.144Z,13.88
2022-09-28T13:38:27.477Z,13.91
2022-09-28T13:41:13.968Z,13.94
2022-09-28T13:44:02.490Z,13.89
2022-09-28T13:46:37.279Z,13.94
2022-09-28T13:49:12.401Z,13.97
2022-09-28T13:51:48.060Z,14.09
2022-09-28T13:54:25.871Z,14.14
2022-09-28T13:57:01.511Z,14.15
2022-09-28T13:59:30.980Z,14.19
2022-09-28T14:02:06.831Z,14.19
2022-09-28T14:04:56.429Z,14.20
2022-09-28T14:10:19.016Z,14.09
2022-09-28T14:12:49.888Z,14.02
2022-09-28T14:15:47.307Z,13.86
2022-09-28T14:18:24.579Z,13.88
2022-09-28T14:21:12.669Z,13.77
2022-09-28T14:23:50.932Z,13.76
2022-09-28T14:26:47.285Z,13.69
2022-09-28T14:29:28.482Z,13.70
2022-09-28T14:31:58.300Z,13.71
2022-09-28T14:34:35.702Z,13.66
2022-09-28T14:37:23.080Z,13.61
2022-09-28T14:40:09.244Z,13.66
2022-09-28T14:42:37.139Z,13.72
2022-09-28T14:45:35.982Z,13.70
2022-09-28T14:48:15.623Z,13.68
2022-09-28T14:50:43.690Z,13.59
2022-09-28T14:53:13.534Z,13.51
2022-09-28T14:55:50.498Z,13.53
2022-09-28T14:58:23.813Z,13.46
2022-09-28T15:00:56.790Z,13.54
2022-09-28T15:03:26.185Z,13.42
2022-09-28T15:05:54.327Z,13.44
2022-09-28T15:08:23.022Z,13.35
2022-09-28T15:10:52.555Z,13.45
2022-09-28T15:13:23.356Z,13.31
2022-09-28T15:15:54.829Z,13.36
2022-09-28T15:18:51.990Z,13.35
2022-09-28T15:21:20.689Z,13.40
2022-09-28T15:23:49.693Z,13.33
2022-09-28T15:26:27.615Z,13.31
2022-09-28T15:28:56.312Z,13.32
2022-09-28T15:31:26.792Z,13.27
2022-09-28T15:34:12.532Z,13.25
2022-09-28T15:36:42.185Z,13.24
2022-09-28T15:39:15.162Z,13.18
2022-09-28T15:41:44.425Z,13.24
2022-09-28T15:44:30.506Z,13.14
2022-09-28T15:47:16.702Z,13.09
2022-09-28T15:49:57.154Z,13.03
2022-09-28T15:52:28.959Z,13.06
2022-09-28T15:54:56.929Z,12.96
2022-09-28T15:57:34.329Z,12.87
2022-09-28T16:00:02.945Z,12.94
2022-09-28T16:02:32.442Z,12.84
2022-09-28T16:05:01.772Z,12.79
2022-09-28T16:07:33.337Z,12.81
2022-09-28T16:10:04.760Z,12.74
2022-09-28T16:12:42.576Z,12.67
2022-09-28T16:15:18.257Z,12.65
2022-09-28T16:17:51.551Z,12.67
2022-09-28T16:20:27.743Z,12.72
2022-09-28T16:22:56.806Z,12.75
2022-09-28T16:25:27.408Z,12.74
2022-09-28T16:27:56.316Z,12.67
2022-09-28T16:30:27.421Z,12.64
2022-09-28T16:32:58.247Z,12.63
2022-09-28T16:35:31.388Z,12.61
2022-09-28T16:38:05.676Z,12.54
2022-09-28T16:40:34.184Z,12.58
2022-09-28T16:43:04.275Z,12.47
2022-09-28T16:45:32.862Z,12.47
2022-09-28T16:48:04.173Z,12.42
2022-09-28T16:50:32.192Z,12.40
2022-09-28T16:53:19.881Z,12.43
2022-09-28T16:55:48.205Z,12.33
2022-09-28T16:58:16.021Z,12.27
2022-09-28T17:00:45.724Z,12.28
2022-09-28T17:03:19.383Z,12.18
2022-09-28T17:05:48.047Z,12.12
2022-09-28T17:08:18.288Z,12.05
2022-09-28T17:11:12.999Z,12.01
2022-09-28T17:13:40.640Z,11.96
2022-09-28T17:16:12.762Z,11.92
2022-09-28T17:18:42.161Z,11.87
2022-09-28T17:21:14.998Z,11.84
2022-09-28T17:23:43.029Z,11.82
2022-09-28T17:26:19.051Z,11.77
2022-09-28T17:28:46.887Z,11.76
2022-09-28T17:31:16.662Z,11.72
2022-09-28T17:33:46.062Z,11.68
2022-09-28T17:36:15.525Z,11.60
2022-09-28T17:38:45.333Z,11.56
2022-09-28T17:41:18.057Z,11.55
2022-09-28T17:43:48.311Z,11.53
2022-09-28T17:46:26.911Z,11.53
2022-09-28T17:48:59.549Z,11.49
2022-09-28T17:51:28.469Z,11.49
2022-09-28T17:53:56.902Z,11.43
2022-09-28T17:56:29.670Z,11.39
2022-09-28T17:59:01.105Z,11.36
2022-09-28T18:01:34.150Z,11.32
2022-09-28T18:04:05.046Z,11.31
2022-09-28T18:06:33.918Z,11.27
2022-09-28T18:09:02.785Z,11.22
2022-09-28T18:11:30.968Z,11.17
2022-09-28T18:14:01.096Z,11.10
2022-09-28T18:16:29.332Z,11.03
2022-09-28T18:18:57.187Z,11.01
2022-09-28T18:21:26.373Z,11.00
2022-09-28T18:23:54.321Z,11.01
2022-09-28T18:26:22.142Z,11.00
2022-09-28T18:28:50.561Z,11.01
2022-09-28T18:31:19.118Z,11.03
2022-09-28T18:36:35.948Z,11.02
2022-09-28T18:39:05.414Z,10.93
2022-09-28T18:41:34.977Z,10.85
2022-09-28T18:44:02.985Z,10.76
2022-09-28T18:46:36.389Z,10.69
2022-09-28T18:49:05.236Z,10.63
2022-09-28T18:51:34.676Z,10.57
2022-09-28T18:54:06.750Z,10.56
2022-09-28T18:56:37.266Z,10.52
2022-09-28T18:59:21.005Z,10.50
2022-09-28T19:01:49.114Z,10.50
2022-09-28T19:04:17.607Z,10.51
2022-09-28T19:06:51.723Z,10.52
2022-09-28T19:09:21.212Z,10.51
2022-09-28T19:11:50.858Z,10.53
2022-09-28T19:14:19.764Z,10.52
2022-09-28T19:16:51.526Z,10.53
2022-09-28T19:19:21.103Z,10.51
2022-09-28T19:21:50.737Z,10.50
2022-09-28T19:24:19.983Z,10.48
2022-09-28T19:26:49.082Z,10.45
2022-09-28T19:29:17.967Z,10.44
2022-09-28T19:31:46.398Z,10.47
2022-09-28T19:34:15.253Z,10.37
2022-09-28T19:36:43.455Z,10.31
2022-09-28T19:39:15.759Z,10.24
2022-09-28T19:41:51.059Z,10.26
2022-09-28T19:44:24.711Z,10.16
2022-09-28T19:46:54.560Z,10.13
2022-09-28T19:49:23.405Z,10.14
2022-09-28T19:52:12.237Z,10.05
2022-09-28T19:54:44.581Z,9.97
2022-09-28T19:57:13.411Z,9.92
2022-09-28T19:59:41.187Z,9.91
2022-09-28T20:02:10.593Z,9.92
2022-09-28T20:04:38.616Z,9.90
2022-09-28T20:07:06.404Z,9.92
2022-09-28T20:09:34.276Z,9.95
2022-09-28T20:12:04.158Z,9.91
2022-09-28T20:14:36.548Z,9.91
2022-09-28T20:17:06.250Z,9.91
2022-09-28T20:19:35.023Z,9.89
2022-09-28T20:22:03.551Z,9.87
2022-09-28T20:24:31.757Z,9.85
2022-09-28T20:27:01.382Z,9.83
2022-09-28T20:29:33.210Z,9.80
2022-09-28T20:32:01.749Z,9.81
2022-09-28T20:34:29.570Z,9.80
2022-09-28T20:36:57.509Z,9.80
2022-09-28T20:39:25.354Z,9.81
2022-09-28T20:41:53.598Z,9.81
2022-09-28T20:44:21.660Z,9.78
2022-09-28T20:46:52.668Z,9.79
2022-09-28T20:49:20.799Z,9.81
2022-09-28T20:51:48.690Z,9.81
2022-09-28T20:54:16.762Z,9.78
2022-09-28T20:56:44.819Z,9.76
2022-09-28T20:59:13.524Z,9.70
2022-09-28T21:01:41.729Z,9.66
2022-09-28T21:04:11.588Z,9.66
2022-09-28T21:06:42.191Z,9.66
2022-09-28T21:09:12.351Z,9.65
2022-09-28T21:11:40.307Z,9.64
2022-09-28T21:14:12.292Z,9.66
2022-09-28T21:16:40.445Z,9.69
2022-09-28T21:19:08.307Z,9.68
2022-09-28T21:21:37.553Z,9.64
2022-09-28T21:24:05.750Z,9.63
2022-09-28T21:26:33.563Z,9.59
2022-09-28T21:29:03.155Z,9.62
2022-09-28T21:31:33.806Z,9.62
2022-09-28T21:34:01.863Z,9.61
2022-09-28T21:36:29.989Z,9.58
2022-09-28T21:38:59.581Z,9.55
2022-09-28T21:41:29.126Z,9.51
2022-09-28T21:43:58.856Z,9.50
2022-09-28T21:46:26.933Z,9.44
2022-09-28T21:48:54.905Z,9.44
2022-09-28T21:51:22.796Z,9.41
2022-09-28T21:53:50.786Z,9.42
2022-09-28T21:56:20.008Z,9.38
2022-09-28T21:58:48.122Z,9.39
2022-09-28T22:01:18.267Z,9.40
2022-09-28T22:03:48.172Z,9.42
2022-09-28T22:06:17.065Z,9.44
2022-09-28T22:08:45.562Z,9.42
2022-09-28T22:11:14.641Z,9.41
2022-09-28T22:13:45.334Z,9.38
2022-09-28T22:16:14.267Z,9.35
2022-09-28T22:18:42.447Z,9.29
2022-09-28T22:21:12.816Z,9.33
2022-09-28T22:23:41.250Z,9.27
2022-09-28T22:26:11.501Z,9.23
2022-09-28T22:28:40.413Z,9.22
2022-09-28T22:31:10.037Z,9.22
2022-09-28T22:33:38.293Z,9.23
2022-09-28T22:36:07.994Z,9.26
2022-09-28T22:38:36.324Z,9.24
2022-09-28T22:41:04.425Z,9.21
2022-09-28T22:43:33.442Z,9.19
2022-09-28T22:46:05.844Z,9.17
2022-09-28T22:48:35.371Z,9.13
2022-09-28T22:51:04.264Z,9.08
2022-09-28T22:53:32.101Z,9.04
2022-09-28T22:56:00.814Z,9.00
2022-09-28T22:58:29.245Z,8.95
2022-09-28T23:00:57.873Z,8.94
2022-09-28T23:03:25.877Z,8.87
2022-09-28T23:05:56.147Z,8.84
2022-09-28T23:08:24.767Z,8.85
2022-09-28T23:10:53.032Z,8.84
2022-09-28T23:13:20.916Z,8.79
2022-09-28T23:15:56.599Z,8.73
2022-09-28T23:18:24.646Z,8.67
2022-09-28T23:20:57.747Z,8.64
2022-09-28T23:23:26.043Z,8.64
2022-09-28T23:25:54.928Z,8.61
2022-09-28T23:28:24.322Z,8.62
2022-09-28T23:30:52.585Z,8.59
2022-09-28T23:33:21.705Z,8.59
2022-09-28T23:35:49.846Z,8.61
2022-09-28T23:38:19.564Z,8.59
2022-09-28T23:40:47.642Z,8.52
2022-09-28T23:43:15.864Z,8.50
2022-09-28T23:45:43.938Z,8.53
2022-09-28T23:48:15.091Z,8.50
2022-09-28T23:50:43.386Z,8.50
2022-09-28T23:53:11.835Z,8.47
2022-09-28T23:55:41.549Z,8.48
2022-09-28T23:58:09.881Z,8.49
